Pagina principale
METAR-TAF:

METAR-TAF

Aeroporti :

Katima Mulilo, Namibia

latitudine: 17-38-04S, longitudine: 024-10-36E, altezza: 985 m

Osservazione

Il bollettino è stato emesso 29 minuti fa, alle 06:00 UTC
Vento 4 kt da est/nord-est
Temperature 9°C
Umidità 61%
Pressione 1024 hPa
Visibilità 10 km o più
nessuna nube inferiore a 1500 m e nessun cumulonembo

METAR: FYKM 270600Z 06004KT CAVOK 09/02 Q1024

Ora: 07:29 (06:29 UTC)

Previsione

Il bollettino è stato emesso 1 ora e 29 minuti fa, alle 05:00 UTC
Previsione valida dal 27 alle 06 UTC al 27 alle 15 UTC
Vento 5 kt da nord-est
Visibilità 10 km o più
nessuna nube inferiore a 1500 m e nessun cumulonembo

TAF: FYKM 270500Z 2706/2715 04005KT CAVOK

Osservazioni e previsioni meteorologiche di più di 4000 aeroporti (messaggi METAR e TAF).

Le stazioni disponibili sono rappresentate dai dischi gialli e rossi sulla carta.

Puntare il mouse per vedere il nome della stazione.

Clicca sopra per visualizzare le osservazioni e previsioni meteorologiche.

Per cambiare la mappa : fare clic sui pulsanti verdi con una croce nera per ingrandire, il pulsante verde con un trattino per diminuire, o sulla freccia verde per le mappe adiacenti.


METAR-TAF: